Quo Vadis — LHRZ — position and weather

sailwx.info

Track history (hours):
 
Tides and Currents Weather Stations Pressure Air Temp Water Temp Dewpoint Dewpoint Depression Visibility Wind Speed Wind Dir Waves Ship Positions

Quo Vadis

Last reported at 2018-Jul-01 09:52 UTC. Time now 2018-Jul-20 16:17 UTC.
Position N 69°12' E 018°01'.
Warning: this ship's position is 19 days out of date.

Length 34 m; draft 5.5 m.

Type: Fishing. MMSI: 257367000.

Date/timePositionNaut miles runAvg speedWind from/ knotsBaromVisibWave heightAir tempDewpointWater temp
2018-Jul-01 09:52N 69°12' E 018°01'3 9.2
2018-Jul-01 09:30N 69°09' E 017°54'5 9.6
2018-Jul-01 09:00N 69°08' E 017°41'5 9.8
2018-Jul-01 08:30N 69°06' E 017°29'6 9.5
2018-Jul-01 07:53N 69°02' E 017°18'5 9.5
2018-Jul-01 07:24N 68°59' E 017°08'  
2018-Jun-27 12:07N 67°36' E 014°24'110.2
2018-Jun-27 12:00N 67°35' E 014°24'510.1
2018-Jun-27 11:29N 67°30' E 014°26'5 9.6
2018-Jun-27 11:00N 67°25' E 014°27'510.0
2018-Jun-27 10:30N 67°21' E 014°21'510.5
2018-Jun-27 10:00N 67°16' E 014°14'510.6
2018-Jun-27 09:30N 67°12' E 014°06'510.8
2018-Jun-27 09:00N 67°07' E 014°00'510.3
2018-Jun-27 08:29N 67°03' E 013°51'510.3
2018-Jun-27 08:00N 67°00' E 013°41'510.1
2018-Jun-27 07:30N 66°58' E 013°30'7 9.7
2018-Jun-27 06:46N 66°52' E 013°20'810.2
2018-Jun-27 05:57N 66°44' E 013°12'12 9.7
2018-Jun-27 04:43N 66°33' E 013°02'3 9.0
2018-Jun-27 04:21N 66°30' E 012°59'410.9
2018-Jun-27 03:58N 66°25' E 012°59'7010.0
2018-Jun-26 21:00N 65°20' E 012°01'510.5
2018-Jun-26 20:29N 65°15' E 011°56'510.3
2018-Jun-26 20:00N 65°10' E 011°51'510.2
2018-Jun-26 19:30N 65°06' E 011°47'510.7
2018-Jun-26 19:00N 65°01' E 011°41'510.2
2018-Jun-26 18:30N 64°58' E 011°32'510.5
2018-Jun-26 18:00N 64°54' E 011°22'611.3
2018-Jun-26 17:30N 64°51' E 011°12'510.2
2018-Jun-26 17:00N 64°47' E 011°04'116 9.7
2018-Jun-26 05:03N 63°18' E 008°14'111.1
2018-Jun-26 05:00N 63°18' E 008°13'510.6
2018-Jun-26 04:30N 63°15' E 008°03'510.4
2018-Jun-26 04:00N 63°12' E 007°53'510.2
2018-Jun-26 03:30N 63°09' E 007°44'510.1
2018-Jun-26 03:00N 63°07' E 007°34'510.2
2018-Jun-26 02:30N 63°04' E 007°24'510.2
2018-Jun-26 02:00N 63°02' E 007°14'1710.0
2018-Jun-26 00:16N 62°52' E 006°43'310.5
2018-Jun-26 00:00N 62°50' E 006°39'510.4
2018-Jun-25 23:30N 62°46' E 006°33'15 9.9
2018-Jun-25 21:58N 62°34' E 006°12'162 5.0
2018-Jun-24 13:49N 59°53' E 005°32'410.9
2018-Jun-24 13:30N 59°49' E 005°33'5 9.4
2018-Jun-24 13:01N 59°45' E 005°31'4 8.6
2018-Jun-24 12:30N 59°42' E 005°25'4 8.5
2018-Jun-24 11:59N 59°38' E 005°19'18 0.4
2018-Jun-22 19:09N 59°20' E 005°18'  
Track history (hours):
 
Tides and Currents Weather Stations Pressure Air Temp Water Temp Dewpoint Dewpoint Depression Visibility Wind Speed Wind Dir Waves Ship Positions

Quo Vadis

Last reported at 2018-Jul-01 09:52 UTC. Time now 2018-Jul-20 16:17 UTC.
Position N 69°12' E 018°01'.
Warning: this ship's position is 19 days out of date.

Length 34 m; draft 5.5 m.

Type: Fishing. MMSI: 257367000.

Date/timePositionNaut miles runAvg speedWind from/ knotsBaromVisibWave heightAir tempDewpointWater temp
2018-Jul-01 09:52N 69°12' E 018°01'3 9.2
2018-Jul-01 09:30N 69°09' E 017°54'5 9.6
2018-Jul-01 09:00N 69°08' E 017°41'5 9.8
2018-Jul-01 08:30N 69°06' E 017°29'6 9.5
2018-Jul-01 07:53N 69°02' E 017°18'5 9.5
2018-Jul-01 07:24N 68°59' E 017°08'  
2018-Jun-27 12:07N 67°36' E 014°24'110.2
2018-Jun-27 12:00N 67°35' E 014°24'510.1
2018-Jun-27 11:29N 67°30' E 014°26'5 9.6
2018-Jun-27 11:00N 67°25' E 014°27'510.0
2018-Jun-27 10:30N 67°21' E 014°21'510.5
2018-Jun-27 10:00N 67°16' E 014°14'510.6
2018-Jun-27 09:30N 67°12' E 014°06'510.8
2018-Jun-27 09:00N 67°07' E 014°00'510.3
2018-Jun-27 08:29N 67°03' E 013°51'510.3
2018-Jun-27 08:00N 67°00' E 013°41'510.1
2018-Jun-27 07:30N 66°58' E 013°30'7 9.7
2018-Jun-27 06:46N 66°52' E 013°20'810.2
2018-Jun-27 05:57N 66°44' E 013°12'12 9.7
2018-Jun-27 04:43N 66°33' E 013°02'3 9.0
2018-Jun-27 04:21N 66°30' E 012°59'410.9
2018-Jun-27 03:58N 66°25' E 012°59'7010.0
2018-Jun-26 21:00N 65°20' E 012°01'510.5
2018-Jun-26 20:29N 65°15' E 011°56'510.3
2018-Jun-26 20:00N 65°10' E 011°51'510.2
2018-Jun-26 19:30N 65°06' E 011°47'510.7
2018-Jun-26 19:00N 65°01' E 011°41'510.2
2018-Jun-26 18:30N 64°58' E 011°32'510.5
2018-Jun-26 18:00N 64°54' E 011°22'611.3
2018-Jun-26 17:30N 64°51' E 011°12'510.2
2018-Jun-26 17:00N 64°47' E 011°04'116 9.7
2018-Jun-26 05:03N 63°18' E 008°14'111.1
2018-Jun-26 05:00N 63°18' E 008°13'510.6
2018-Jun-26 04:30N 63°15' E 008°03'510.4
2018-Jun-26 04:00N 63°12' E 007°53'510.2
2018-Jun-26 03:30N 63°09' E 007°44'510.1
2018-Jun-26 03:00N 63°07' E 007°34'510.2
2018-Jun-26 02:30N 63°04' E 007°24'510.2
2018-Jun-26 02:00N 63°02' E 007°14'1710.0
2018-Jun-26 00:16N 62°52' E 006°43'310.5
2018-Jun-26 00:00N 62°50' E 006°39'510.4
2018-Jun-25 23:30N 62°46' E 006°33'15 9.9
2018-Jun-25 21:58N 62°34' E 006°12'162 5.0
2018-Jun-24 13:49N 59°53' E 005°32'410.9
2018-Jun-24 13:30N 59°49' E 005°33'5 9.4
2018-Jun-24 13:01N 59°45' E 005°31'4 8.6
2018-Jun-24 12:30N 59°42' E 005°25'4 8.5
2018-Jun-24 11:59N 59°38' E 005°19'18 0.4
2018-Jun-22 19:09N 59°20' E 005°18'  

Dump ship's entire track history